sensor_id;sensor_type;location;lat;lon;timestamp;pressure;altitude;pressure_sealevel;temperature;humidity
70445;BME280;57902;49.638;11.070;2023-08-07T00:00:11;97549.47;;;12.04;100.00
70445;BME280;57902;49.638;11.070;2023-08-07T00:02:38;97556.34;;;12.05;100.00
70445;BME280;57902;49.638;11.070;2023-08-07T00:05:06;97556.19;;;12.08;100.00
70445;BME280;57902;49.638;11.070;2023-08-07T00:07:32;97552.13;;;12.03;100.00
70445;BME280;57902;49.638;11.070;2023-08-07T00:10:02;97553.88;;;12.02;100.00
70445;BME280;57902;49.638;11.070;2023-08-07T00:12:33;97558.44;;;11.97;100.00
70445;BME280;57902;49.638;11.070;2023-08-07T00:15:01;97560.88;;;12.00;100.00
70445;BME280;57902;49.638;11.070;2023-08-07T00:17:28;97554.31;;;11.93;100.00
70445;BME280;57902;49.638;11.070;2023-08-07T00:19:55;97558.28;;;12.00;100.00
70445;BME280;57902;49.638;11.070;2023-08-07T00:22:22;97553.13;;;12.00;100.00
70445;BME280;57902;49.638;11.070;2023-08-07T00:24:48;97556.44;;;12.02;100.00
70445;BME280;57902;49.638;11.070;2023-08-07T00:27:15;97562.06;;;11.93;100.00
70445;BME280;57902;49.638;11.070;2023-08-07T00:29:42;97555.09;;;11.95;100.00
70445;BME280;57902;49.638;11.070;2023-08-07T00:32:08;97553.34;;;11.96;100.00
70445;BME280;57902;49.638;11.070;2023-08-07T00:34:35;97549.06;;;11.95;100.00
70445;BME280;57902;49.638;11.070;2023-08-07T00:37:02;97555.09;;;11.95;100.00
70445;BME280;57902;49.638;11.070;2023-08-07T00:39:29;97563.59;;;11.97;100.00
70445;BME280;57902;49.638;11.070;2023-08-07T00:41:56;97558.28;;;12.00;100.00
70445;BME280;57902;49.638;11.070;2023-08-07T00:44:28;97551.84;;;11.90;100.00
70445;BME280;57902;49.638;11.070;2023-08-07T00:47:03;97564.69;;;11.91;100.00
70445;BME280;57902;49.638;11.070;2023-08-07T00:49:39;97567.22;;;11.93;100.00
70445;BME280;57902;49.638;11.070;2023-08-07T00:52:07;97561.41;;;11.88;100.00
70445;BME280;57902;49.638;11.070;2023-08-07T00:54:34;97567.34;;;11.90;100.00
70445;BME280;57902;49.638;11.070;2023-08-07T00:57:10;97568.16;;;11.90;100.00
70445;BME280;57902;49.638;11.070;2023-08-07T00:59:42;97573.09;;;11.78;100.00
70445;BME280;57902;49.638;11.070;2023-08-07T01:02:12;97574.25;;;11.89;100.00
70445;BME280;57902;49.638;11.070;2023-08-07T01:04:51;97577.25;;;11.80;100.00
70445;BME280;57902;49.638;11.070;2023-08-07T01:07:18;97584.81;;;11.85;100.00
70445;BME280;57902;49.638;11.070;2023-08-07T01:09:48;97590.94;;;11.82;100.00
70445;BME280;57902;49.638;11.070;2023-08-07T01:12:19;97581.28;;;11.86;100.00
70445;BME280;57902;49.638;11.070;2023-08-07T01:14:53;97574.88;;;11.76;100.00
70445;BME280;57902;49.638;11.070;2023-08-07T01:17:22;97579.75;;;11.82;100.00
70445;BME280;57902;49.638;11.070;2023-08-07T01:19:50;97586.88;;;11.77;100.00
70445;BME280;57902;49.638;11.070;2023-08-07T01:22:19;97584.25;;;11.78;100.00
70445;BME280;57902;49.638;11.070;2023-08-07T01:24:48;97583.56;;;11.75;100.00
70445;BME280;57902;49.638;11.070;2023-08-07T01:35:17;97609.31;;;11.76;100.00
70445;BME280;57902;49.638;11.070;2023-08-07T01:37:47;97602.66;;;11.70;100.00
70445;BME280;57902;49.638;11.070;2023-08-07T01:40:15;97605.38;;;11.67;100.00
70445;BME280;57902;49.638;11.070;2023-08-07T01:42:43;97612.78;;;11.75;100.00
70445;BME280;57902;49.638;11.070;2023-08-07T01:45:13;97606.91;;;11.71;100.00
70445;BME280;57902;49.638;11.070;2023-08-07T01:47:40;97615.28;;;11.77;100.00
70445;BME280;57902;49.638;11.070;2023-08-07T01:50:09;97619.69;;;11.75;100.00
70445;BME280;57902;49.638;11.070;2023-08-07T01:52:39;97615.06;;;11.62;100.00
70445;BME280;57902;49.638;11.070;2023-08-07T01:55:06;97620.16;;;11.64;100.00
70445;BME280;57902;49.638;11.070;2023-08-07T01:57:36;97617.66;;;11.62;100.00
70445;BME280;57902;49.638;11.070;2023-08-07T02:00:03;97617.50;;;11.65;100.00
70445;BME280;57902;49.638;11.070;2023-08-07T02:02:35;97637.81;;;11.73;100.00
70445;BME280;57902;49.638;11.070;2023-08-07T02:05:03;97637.63;;;11.59;100.00
70445;BME280;57902;49.638;11.070;2023-08-07T02:07:30;97633.06;;;11.64;100.00
70445;BME280;57902;49.638;11.070;2023-08-07T02:09:58;97641.84;;;11.60;100.00
70445;BME280;57902;49.638;11.070;2023-08-07T02:12:25;97638.50;;;11.58;100.00
70445;BME280;57902;49.638;11.070;2023-08-07T02:14:56;97642.91;;;11.55;100.00
70445;BME280;57902;49.638;11.070;2023-08-07T02:17:24;97644.91;;;11.49;100.00
70445;BME280;57902;49.638;11.070;2023-08-07T02:19:51;97645.81;;;11.48;100.00
70445;BME280;57902;49.638;11.070;2023-08-07T02:22:18;97647.16;;;11.56;100.00
70445;BME280;57902;49.638;11.070;2023-08-07T02:24:45;97653.56;;;11.48;100.00
70445;BME280;57902;49.638;11.070;2023-08-07T02:27:12;97650.91;;;11.49;100.00
70445;BME280;57902;49.638;11.070;2023-08-07T02:29:50;97657.63;;;11.53;100.00
70445;BME280;57902;49.638;11.070;2023-08-07T02:32:22;97660.25;;;11.52;100.00
70445;BME280;57902;49.638;11.070;2023-08-07T02:34:52;97657.81;;;11.49;100.00
70445;BME280;57902;49.638;11.070;2023-08-07T02:37:19;97664.81;;;11.47;100.00
70445;BME280;57902;49.638;11.070;2023-08-07T02:39:47;97663.19;;;11.44;100.00
70445;BME280;57902;49.638;11.070;2023-08-07T02:42:14;97666.38;;;11.49;100.00
70445;BME280;57902;49.638;11.070;2023-08-07T02:44:40;97670.84;;;11.46;100.00
70445;BME280;57902;49.638;11.070;2023-08-07T02:47:07;97663.94;;;11.46;100.00
70445;BME280;57902;49.638;11.070;2023-08-07T02:49:39;97670.59;;;11.52;100.00
70445;BME280;57902;49.638;11.070;2023-08-07T02:52:06;97677.72;;;11.47;100.00
70445;BME280;57902;49.638;11.070;2023-08-07T02:54:33;97669.97;;;11.47;100.00
70445;BME280;57902;49.638;11.070;2023-08-07T02:56:59;97678.00;;;11.39;100.00
70445;BME280;57902;49.638;11.070;2023-08-07T02:59:29;97680.22;;;11.48;100.00
70445;BME280;57902;49.638;11.070;2023-08-07T03:02:03;97679.63;;;11.42;100.00
70445;BME280;57902;49.638;11.070;2023-08-07T03:04:30;97679.63;;;11.42;100.00
70445;BME280;57902;49.638;11.070;2023-08-07T03:06:57;97670.28;;;11.39;100.00
70445;BME280;57902;49.638;11.070;2023-08-07T03:09:24;97681.44;;;11.40;100.00
70445;BME280;57902;49.638;11.070;2023-08-07T03:11:58;97692.81;;;11.35;100.00
70445;BME280;57902;49.638;11.070;2023-08-07T03:14:31;97692.81;;;11.35;100.00
70445;BME280;57902;49.638;11.070;2023-08-07T03:17:09;97688.16;;;11.44;100.00
70445;BME280;57902;49.638;11.070;2023-08-07T03:19:42;97701.50;;;11.33;100.00
70445;BME280;57902;49.638;11.070;2023-08-07T03:22:10;97696.94;;;11.40;100.00
70445;BME280;57902;49.638;11.070;2023-08-07T03:24:47;97699.00;;;11.31;100.00
70445;BME280;57902;49.638;11.070;2023-08-07T03:27:15;97700.59;;;11.34;100.00
70445;BME280;57902;49.638;11.070;2023-08-07T03:29:49;97706.03;;;11.28;100.00
70445;BME280;57902;49.638;11.070;2023-08-07T03:32:21;97713.72;;;11.29;100.00
70445;BME280;57902;49.638;11.070;2023-08-07T03:35:10;97712.66;;;11.33;100.00
70445;BME280;57902;49.638;11.070;2023-08-07T03:37:37;97713.91;;;11.25;100.00
70445;BME280;57902;49.638;11.070;2023-08-07T03:40:17;97726.69;;;11.28;100.00
70445;BME280;57902;49.638;11.070;2023-08-07T03:43:03;97725.19;;;11.22;100.00
70445;BME280;57902;49.638;11.070;2023-08-07T03:45:41;97725.88;;;11.26;100.00
70445;BME280;57902;49.638;11.070;2023-08-07T03:48:10;97725.81;;;11.27;100.00
70445;BME280;57902;49.638;11.070;2023-08-07T03:50:51;97730.91;;;11.29;100.00
70445;BME280;57902;49.638;11.070;2023-08-07T03:53:23;97736.13;;;11.27;100.00
70445;BME280;57902;49.638;11.070;2023-08-07T03:55:59;97741.38;;;11.26;100.00
70445;BME280;57902;49.638;11.070;2023-08-07T03:58:27;97750.34;;;11.37;100.00
70445;BME280;57902;49.638;11.070;2023-08-07T04:00:54;97738.47;;;11.33;100.00
70445;BME280;57902;49.638;11.070;2023-08-07T04:03:27;97753.38;;;11.27;100.00
70445;BME280;57902;49.638;11.070;2023-08-07T04:05:58;97751.56;;;11.29;100.00
70445;BME280;57902;49.638;11.070;2023-08-07T04:08:36;97760.50;;;11.20;100.00
70445;BME280;57902;49.638;11.070;2023-08-07T04:11:22;97763.03;;;11.21;100.00
70445;BME280;57902;49.638;11.070;2023-08-07T04:13:58;97755.81;;;11.30;100.00
70445;BME280;57902;49.638;11.070;2023-08-07T04:16:58;97763.63;;;11.28;100.00
70445;BME280;57902;49.638;11.070;2023-08-07T04:20:14;97763.69;;;11.27;100.00
70445;BME280;57902;49.638;11.070;2023-08-07T04:23:15;97769.94;;;11.21;100.00
70445;BME280;57902;49.638;11.070;2023-08-07T04:25:42;97769.28;;;11.16;100.00
70445;BME280;57902;49.638;11.070;2023-08-07T04:28:08;97774.53;;;11.14;100.00
70445;BME280;57902;49.638;11.070;2023-08-07T04:30:35;97770.19;;;11.15;100.00
70445;BME280;57902;49.638;11.070;2023-08-07T04:33:02;97782.19;;;11.16;100.00
70445;BME280;57902;49.638;11.070;2023-08-07T04:35:29;97776.06;;;11.18;100.00
70445;BME280;57902;49.638;11.070;2023-08-07T04:37:55;97787.94;;;11.23;100.00
70445;BME280;57902;49.638;11.070;2023-08-07T04:40:22;97783.84;;;11.17;100.00
70445;BME280;57902;49.638;11.070;2023-08-07T04:42:49;97792.97;;;11.26;100.00
70445;BME280;57902;49.638;11.070;2023-08-07T04:45:15;97782.91;;;11.19;100.00
70445;BME280;57902;49.638;11.070;2023-08-07T04:47:42;97788.25;;;11.15;100.00
70445;BME280;57902;49.638;11.070;2023-08-07T04:50:08;97787.09;;;11.22;100.00
70445;BME280;57902;49.638;11.070;2023-08-07T04:52:36;97797.69;;;11.16;100.00
70445;BME280;57902;49.638;11.070;2023-08-07T04:55:02;97796.75;;;11.17;100.00
70445;BME280;57902;49.638;11.070;2023-08-07T04:57:29;97799.34;;;11.17;100.00
70445;BME280;57902;49.638;11.070;2023-08-07T04:59:55;97798.38;;;11.19;100.00
70445;BME280;57902;49.638;11.070;2023-08-07T05:02:22;97807.88;;;11.19;100.00
70445;BME280;57902;49.638;11.070;2023-08-07T05:04:49;97812.78;;;11.25;100.00
70445;BME280;57902;49.638;11.070;2023-08-07T05:07:15;97812.91;;;11.22;100.00
70445;BME280;57902;49.638;11.070;2023-08-07T05:09:42;97809.53;;;11.20;100.00
70445;BME280;57902;49.638;11.070;2023-08-07T05:12:08;97808.69;;;11.19;100.00
70445;BME280;57902;49.638;11.070;2023-08-07T05:14:35;97815.53;;;11.20;100.00
70445;BME280;57902;49.638;11.070;2023-08-07T05:17:01;97810.25;;;11.24;100.00
70445;BME280;57902;49.638;11.070;2023-08-07T05:19:28;97813.03;;;11.19;100.00
70445;BME280;57902;49.638;11.070;2023-08-07T05:21:55;97812.03;;;11.21;100.00
70445;BME280;57902;49.638;11.070;2023-08-07T05:24:22;97811.81;;;11.28;100.00
70445;BME280;57902;49.638;11.070;2023-08-07T05:26:48;97817.34;;;11.18;100.00
70445;BME280;57902;49.638;11.070;2023-08-07T05:29:15;97819.50;;;11.29;100.00
70445;BME280;57902;49.638;11.070;2023-08-07T05:31:42;97820.59;;;11.24;100.00
70445;BME280;57902;49.638;11.070;2023-08-07T05:34:09;97836.75;;;11.27;100.00
70445;BME280;57902;49.638;11.070;2023-08-07T05:36:35;97827.44;;;11.25;100.00
70445;BME280;57902;49.638;11.070;2023-08-07T05:39:02;97827.47;;;11.23;100.00
70445;BME280;57902;49.638;11.070;2023-08-07T05:41:30;97823.53;;;11.36;100.00
70445;BME280;57902;49.638;11.070;2023-08-07T05:43:57;97826.09;;;11.36;100.00
70445;BME280;57902;49.638;11.070;2023-08-07T05:46:26;97828.63;;;11.38;100.00
70445;BME280;57902;49.638;11.070;2023-08-07T05:48:52;97837.25;;;11.37;100.00
70445;BME280;57902;49.638;11.070;2023-08-07T05:51:19;97833.59;;;11.43;100.00
70445;BME280;57902;49.638;11.070;2023-08-07T05:53:46;97831.13;;;11.40;100.00
70445;BME280;57902;49.638;11.070;2023-08-07T05:56:12;97841.09;;;11.49;100.00
70445;BME280;57902;49.638;11.070;2023-08-07T05:58:39;97841.28;;;11.44;100.00
70445;BME280;57902;49.638;11.070;2023-08-07T06:01:05;97851.78;;;11.40;100.00
70445;BME280;57902;49.638;11.070;2023-08-07T06:03:32;97854.06;;;11.47;100.00
70445;BME280;57902;49.638;11.070;2023-08-07T06:05:59;97857.59;;;11.45;100.00
70445;BME280;57902;49.638;11.070;2023-08-07T06:08:25;97852.09;;;11.52;100.00
70445;BME280;57902;49.638;11.070;2023-08-07T06:10:51;97858.00;;;11.56;100.00
70445;BME280;57902;49.638;11.070;2023-08-07T06:13:18;97848.75;;;11.50;100.00
70445;BME280;57902;49.638;11.070;2023-08-07T06:15:59;97856.19;;;11.58;100.00
70445;BME280;57902;49.638;11.070;2023-08-07T06:18:26;97860.16;;;11.45;100.00
70445;BME280;57902;49.638;11.070;2023-08-07T06:20:52;97866.81;;;11.50;100.00
70445;BME280;57902;49.638;11.070;2023-08-07T06:23:19;97865.19;;;11.48;100.00
70445;BME280;57902;49.638;11.070;2023-08-07T06:25:45;97871.03;;;11.53;100.00
70445;BME280;57902;49.638;11.070;2023-08-07T06:28:12;97867.59;;;11.52;100.00
70445;BME280;57902;49.638;11.070;2023-08-07T06:30:39;97869.59;;;11.46;100.00
70445;BME280;57902;49.638;11.070;2023-08-07T06:33:05;97869.34;;;11.52;100.00
70445;BME280;57902;49.638;11.070;2023-08-07T06:35:37;97871.81;;;11.55;100.00
70445;BME280;57902;49.638;11.070;2023-08-07T06:38:04;97871.69;;;11.58;100.00
70445;BME280;57902;49.638;11.070;2023-08-07T06:40:31;97883.81;;;11.56;100.00
70445;BME280;57902;49.638;11.070;2023-08-07T06:42:57;97886.41;;;11.56;100.00
70445;BME280;57902;49.638;11.070;2023-08-07T06:45:24;97883.88;;;11.54;100.00
70445;BME280;57902;49.638;11.070;2023-08-07T06:47:51;97887.53;;;11.49;100.00
70445;BME280;57902;49.638;11.070;2023-08-07T06:50:18;97887.59;;;11.47;100.00
70445;BME280;57902;49.638;11.070;2023-08-07T06:52:45;97897.16;;;11.45;100.00
70445;BME280;57902;49.638;11.070;2023-08-07T06:55:11;97893.47;;;11.51;100.00
70445;BME280;57902;49.638;11.070;2023-08-07T06:57:37;97895.84;;;11.57;100.00
70445;BME280;57902;49.638;11.070;2023-08-07T07:00:05;97899.75;;;11.45;100.00
70445;BME280;57902;49.638;11.070;2023-08-07T07:02:31;97891.69;;;11.53;100.00
70445;BME280;57902;49.638;11.070;2023-08-07T07:04:58;97905.41;;;11.53;100.00
70445;BME280;57902;49.638;11.070;2023-08-07T07:07:25;97897.38;;;11.61;100.00
70445;BME280;57902;49.638;11.070;2023-08-07T07:09:51;97892.09;;;11.64;100.00
70445;BME280;57902;49.638;11.070;2023-08-07T07:12:18;97903.75;;;11.75;100.00
70445;BME280;57902;49.638;11.070;2023-08-07T07:14:44;97906.59;;;11.67;100.00
70445;BME280;57902;49.638;11.070;2023-08-07T07:17:11;97907.69;;;11.61;100.00
70445;BME280;57902;49.638;11.070;2023-08-07T07:19:37;97907.00;;;11.58;100.00
70445;BME280;57902;49.638;11.070;2023-08-07T07:22:04;97910.28;;;11.61;100.00
70445;BME280;57902;49.638;11.070;2023-08-07T07:24:31;97920.78;;;11.79;100.00
70445;BME280;57902;49.638;11.070;2023-08-07T07:26:57;97928.56;;;11.77;100.00
70445;BME280;57902;49.638;11.070;2023-08-07T07:29:24;97925.28;;;11.73;100.00
70445;BME280;57902;49.638;11.070;2023-08-07T07:31:50;97926.56;;;11.63;100.00
70445;BME280;57902;49.638;11.070;2023-08-07T07:34:17;97931.22;;;11.76;100.00
70445;BME280;57902;49.638;11.070;2023-08-07T07:36:43;97930.59;;;11.70;100.00
70445;BME280;57902;49.638;11.070;2023-08-07T07:39:10;97931.97;;;11.79;100.00
70445;BME280;57902;49.638;11.070;2023-08-07T07:41:37;97940.22;;;11.87;100.00
70445;BME280;57902;49.638;11.070;2023-08-07T07:44:03;97940.34;;;11.84;100.00
70445;BME280;57902;49.638;11.070;2023-08-07T07:46:30;97946.38;;;11.85;100.00
70445;BME280;57902;49.638;11.070;2023-08-07T07:48:58;97947.19;;;11.85;100.00
70445;BME280;57902;49.638;11.070;2023-08-07T07:51:25;97945.44;;;11.86;100.00
70445;BME280;57902;49.638;11.070;2023-08-07T07:53:52;97958.03;;;11.95;100.00
70445;BME280;57902;49.638;11.070;2023-08-07T07:56:38;97949.59;;;11.90;100.00
70445;BME280;57902;49.638;11.070;2023-08-07T07:59:05;97955.53;;;11.94;100.00
70445;BME280;57902;49.638;11.070;2023-08-07T08:01:34;97966.91;;;11.88;100.00
70445;BME280;57902;49.638;11.070;2023-08-07T08:04:01;97965.72;;;11.97;100.00
70445;BME280;57902;49.638;11.070;2023-08-07T08:06:28;97972.84;;;11.90;100.00
70445;BME280;57902;49.638;11.070;2023-08-07T08:08:54;97966.44;;;12.00;100.00
70445;BME280;57902;49.638;11.070;2023-08-07T08:11:21;97971.84;;;11.94;100.00
70445;BME280;57902;49.638;11.070;2023-08-07T08:13:48;97980.50;;;11.93;100.00
70445;BME280;57902;49.638;11.070;2023-08-07T08:16:15;97985.53;;;11.96;100.00
70445;BME280;57902;49.638;11.070;2023-08-07T08:18:42;97983.00;;;11.95;100.00
70445;BME280;57902;49.638;11.070;2023-08-07T08:21:08;97987.44;;;12.13;100.00
70445;BME280;57902;49.638;11.070;2023-08-07T08:23:35;97996.16;;;12.11;100.00
70445;BME280;57902;49.638;11.070;2023-08-07T08:26:01;97994.34;;;12.13;100.00
70445;BME280;57902;49.638;11.070;2023-08-07T08:28:28;98003.78;;;12.14;100.00
70445;BME280;57902;49.638;11.070;2023-08-07T08:30:55;98001.63;;;12.25;100.00
70445;BME280;57902;49.638;11.070;2023-08-07T08:33:31;98004.00;;;12.30;100.00
70445;BME280;57902;49.638;11.070;2023-08-07T08:36:01;98012.44;;;12.35;100.00
70445;BME280;57902;49.638;11.070;2023-08-07T08:38:27;98003.56;;;12.40;100.00
70445;BME280;57902;49.638;11.070;2023-08-07T08:41:02;98011.22;;;12.43;100.00
70445;BME280;57902;49.638;11.070;2023-08-07T08:43:34;98016.00;;;12.53;100.00
70445;BME280;57902;49.638;11.070;2023-08-07T08:46:01;98016.13;;;12.50;100.00
70445;BME280;57902;49.638;11.070;2023-08-07T08:48:30;98023.00;;;12.49;100.00
70445;BME280;57902;49.638;11.070;2023-08-07T08:50:58;98032.41;;;12.52;100.00
70445;BME280;57902;49.638;11.070;2023-08-07T08:53:25;98040.88;;;12.55;100.00
70445;BME280;57902;49.638;11.070;2023-08-07T08:55:52;98028.03;;;12.54;100.00
70445;BME280;57902;49.638;11.070;2023-08-07T08:58:19;98026.59;;;12.47;100.00
70445;BME280;57902;49.638;11.070;2023-08-07T09:00:46;98044.69;;;12.47;100.00
70445;BME280;57902;49.638;11.070;2023-08-07T09:03:14;98046.59;;;12.41;100.00
70445;BME280;57902;49.638;11.070;2023-08-07T09:05:41;98048.00;;;12.28;100.00
70445;BME280;57902;49.638;11.070;2023-08-07T09:08:08;98040.78;;;12.36;100.00
70445;BME280;57902;49.638;11.070;2023-08-07T09:10:36;98044.28;;;12.35;100.00
70445;BME280;57902;49.638;11.070;2023-08-07T09:13:04;98048.97;;;12.25;100.00
70445;BME280;57902;49.638;11.070;2023-08-07T09:15:35;98051.63;;;12.24;100.00
70445;BME280;57902;49.638;11.070;2023-08-07T09:18:05;98053.31;;;12.25;100.00
70445;BME280;57902;49.638;11.070;2023-08-07T09:20:37;98056.91;;;12.21;100.00
70445;BME280;57902;49.638;11.070;2023-08-07T09:23:05;98060.25;;;12.23;100.00
70445;BME280;57902;49.638;11.070;2023-08-07T09:25:33;98059.66;;;12.38;100.00
70445;BME280;57902;49.638;11.070;2023-08-07T09:28:04;98065.09;;;12.32;100.00
70445;BME280;57902;49.638;11.070;2023-08-07T09:30:32;98057.19;;;12.35;100.00
70445;BME280;57902;49.638;11.070;2023-08-07T09:33:01;98056.88;;;12.43;100.00
70445;BME280;57902;49.638;11.070;2023-08-07T09:35:29;98067.50;;;12.57;100.00
70445;BME280;57902;49.638;11.070;2023-08-07T09:37:58;98068.84;;;12.46;100.00
70445;BME280;57902;49.638;11.070;2023-08-07T09:40:24;98069.69;;;12.46;100.00
70445;BME280;57902;49.638;11.070;2023-08-07T09:42:52;98074.03;;;12.46;100.00
70445;BME280;57902;49.638;11.070;2023-08-07T09:45:24;98073.88;;;12.49;100.00
70445;BME280;57902;49.638;11.070;2023-08-07T09:48:01;98076.13;;;12.36;100.00
70445;BME280;57902;49.638;11.070;2023-08-07T09:50:29;98082.66;;;12.45;100.00
70445;BME280;57902;49.638;11.070;2023-08-07T09:52:57;98084.34;;;12.46;100.00
70445;BME280;57902;49.638;11.070;2023-08-07T09:55:27;98085.00;;;12.51;100.00
70445;BME280;57902;49.638;11.070;2023-08-07T09:57:54;98091.25;;;12.67;100.00
70445;BME280;57902;49.638;11.070;2023-08-07T10:00:20;98099.91;;;12.66;100.00
70445;BME280;57902;49.638;11.070;2023-08-07T10:02:48;98082.69;;;12.65;100.00
70445;BME280;57902;49.638;11.070;2023-08-07T10:05:16;98095.63;;;12.65;100.00
70445;BME280;57902;49.638;11.070;2023-08-07T10:07:43;98099.06;;;12.66;100.00
70445;BME280;57902;49.638;11.070;2023-08-07T10:10:10;98098.88;;;12.70;100.00
70445;BME280;57902;49.638;11.070;2023-08-07T10:12:37;98098.69;;;12.75;100.00
70445;BME280;57902;49.638;11.070;2023-08-07T10:15:05;98101.22;;;12.76;100.00
70445;BME280;57902;49.638;11.070;2023-08-07T10:17:32;98100.75;;;12.87;100.00
70445;BME280;57902;49.638;11.070;2023-08-07T10:19:59;98105.78;;;12.90;100.00
70445;BME280;57902;49.638;11.070;2023-08-07T10:22:29;98104.75;;;13.15;100.00
70445;BME280;57902;49.638;11.070;2023-08-07T10:24:59;98112.97;;;13.25;100.00
70445;BME280;57902;49.638;11.070;2023-08-07T10:27:40;98115.84;;;13.39;100.00
70445;BME280;57902;49.638;11.070;2023-08-07T10:30:18;98110.38;;;13.45;100.00
70445;BME280;57902;49.638;11.070;2023-08-07T10:33:04;98123.13;;;13.50;100.00
70445;BME280;57902;49.638;11.070;2023-08-07T10:35:34;98122.16;;;13.53;100.00
70445;BME280;57902;49.638;11.070;2023-08-07T10:38:12;98118.28;;;13.42;100.00
70445;BME280;57902;49.638;11.070;2023-08-07T10:43:46;98124.09;;;13.47;100.00
70445;BME280;57902;49.638;11.070;2023-08-07T10:46:20;98122.69;;;13.40;100.00
70445;BME280;57902;49.638;11.070;2023-08-07T10:48:58;98131.31;;;13.41;100.00
70445;BME280;57902;49.638;11.070;2023-08-07T10:51:29;98131.72;;;13.51;100.00
70445;BME280;57902;49.638;11.070;2023-08-07T10:54:01;98128.03;;;13.56;100.00
70445;BME280;57902;49.638;11.070;2023-08-07T10:56:38;98129.31;;;13.67;100.00
70445;BME280;57902;49.638;11.070;2023-08-07T10:59:09;98133.06;;;13.59;100.00
70445;BME280;57902;49.638;11.070;2023-08-07T11:01:42;98138.53;;;13.53;100.00
70445;BME280;57902;49.638;11.070;2023-08-07T11:04:21;98138.38;;;13.56;100.00
70445;BME280;57902;49.638;11.070;2023-08-07T11:06:57;98142.56;;;13.40;100.00
70445;BME280;57902;49.638;11.070;2023-08-07T11:09:27;98146.63;;;13.45;100.00
70445;BME280;57902;49.638;11.070;2023-08-07T11:11:56;98145.25;;;13.57;100.00
70445;BME280;57902;49.638;11.070;2023-08-07T11:14:23;98142.88;;;13.53;100.00
70445;BME280;57902;49.638;11.070;2023-08-07T11:16:53;98146.88;;;13.60;100.00
70445;BME280;57902;49.638;11.070;2023-08-07T11:19:22;98139.53;;;13.70;100.00
70445;BME280;57902;49.638;11.070;2023-08-07T11:21:49;98146.13;;;13.77;100.00
70445;BME280;57902;49.638;11.070;2023-08-07T11:24:17;98157.56;;;13.73;100.00
70445;BME280;57902;49.638;11.070;2023-08-07T11:26:49;98152.28;;;13.74;100.00
70445;BME280;57902;49.638;11.070;2023-08-07T11:29:17;98145.28;;;13.76;100.00
70445;BME280;57902;49.638;11.070;2023-08-07T11:31:47;98145.91;;;13.81;100.00
70445;BME280;57902;49.638;11.070;2023-08-07T11:34:14;98148.25;;;13.88;100.00
70445;BME280;57902;49.638;11.070;2023-08-07T11:36:41;98151.16;;;13.80;100.00
70445;BME280;57902;49.638;11.070;2023-08-07T11:39:18;98147.16;;;13.92;100.00
70445;BME280;57902;49.638;11.070;2023-08-07T11:41:53;98151.72;;;13.87;100.00
70445;BME280;57902;49.638;11.070;2023-08-07T11:44:40;98151.94;;;14.01;100.00
70445;BME280;57902;49.638;11.070;2023-08-07T11:47:12;98147.53;;;14.03;100.00
70445;BME280;57902;49.638;11.070;2023-08-07T11:49:39;98143.97;;;14.06;100.00
70445;BME280;57902;49.638;11.070;2023-08-07T11:52:11;98147.81;;;13.97;99.59
70445;BME280;57902;49.638;11.070;2023-08-07T11:55:20;98158.19;;;14.16;98.51
70445;BME280;57902;49.638;11.070;2023-08-07T11:57:50;98147.28;;;14.27;99.49
70445;BME280;57902;49.638;11.070;2023-08-07T12:00:26;98146.66;;;14.41;99.82
70445;BME280;57902;49.638;11.070;2023-08-07T12:02:57;98157.88;;;14.41;96.10
70445;BME280;57902;49.638;11.070;2023-08-07T12:05:38;98169.94;;;14.23;99.41
70445;BME280;57902;49.638;11.070;2023-08-07T12:08:37;98164.69;;;14.25;95.35
70445;BME280;57902;49.638;11.070;2023-08-07T12:11:14;98171.97;;;14.16;96.46
70445;BME280;57902;49.638;11.070;2023-08-07T12:14:22;98171.97;;;14.16;97.64
70445;BME280;57902;49.638;11.070;2023-08-07T12:16:59;98172.03;;;13.96;99.41
70445;BME280;57902;49.638;11.070;2023-08-07T12:19:52;98177.38;;;13.93;100.00
70445;BME280;57902;49.638;11.070;2023-08-07T12:22:23;98174.28;;;13.85;100.00
70445;BME280;57902;49.638;11.070;2023-08-07T12:48:04;98193.63;;;13.57;100.00
70445;BME280;57902;49.638;11.070;2023-08-07T13:06:14;98204.53;;;13.02;100.00
70445;BME280;57902;49.638;11.070;2023-08-07T13:16:42;98208.56;;;12.87;100.00
70445;BME280;57902;49.638;11.070;2023-08-07T13:19:22;98207.63;;;12.89;100.00
70445;BME280;57902;49.638;11.070;2023-08-07T13:22:24;98219.69;;;12.89;100.00
70445;BME280;57902;49.638;11.070;2023-08-07T13:25:19;98214.72;;;12.84;100.00
70445;BME280;57902;49.638;11.070;2023-08-07T13:27:56;98218.34;;;13.01;100.00
70445;BME280;57902;49.638;11.070;2023-08-07T13:31:06;98217.53;;;13.00;100.00
70445;BME280;57902;49.638;11.070;2023-08-07T13:34:51;98222.69;;;13.00;100.00
70445;BME280;57902;49.638;11.070;2023-08-07T13:48:58;98233.47;;;13.32;100.00
70445;BME280;57902;49.638;11.070;2023-08-07T13:55:58;98241.50;;;13.48;100.00
70445;BME280;57902;49.638;11.070;2023-08-07T13:59:34;98247.56;;;13.47;100.00
70445;BME280;57902;49.638;11.070;2023-08-07T14:02:24;98242.84;;;13.57;100.00
70445;BME280;57902;49.638;11.070;2023-08-07T14:05:07;98245.03;;;13.45;100.00
70445;BME280;57902;49.638;11.070;2023-08-07T14:07:59;98255.88;;;13.55;100.00
70445;BME280;57902;49.638;11.070;2023-08-07T14:10:51;98254.88;;;13.58;100.00
70445;BME280;57902;49.638;11.070;2023-08-07T14:14:19;98256.97;;;13.50;100.00